Sabine, Louisiana
Current Conditions -  °F | °C
As of 10:56 AM on Friday 28 Nov 2014 (Local Time) from KAQV Reporting Station
Clear Clear  
Wind Chill: 57°   Ceiling: Unl
Heat Index: 57°   Visibility: 10mi
Dew Point: 36°   Wind: 7mph
Humidity: 45%   Direction: 170°S
Pressure: 30.34"   Gusts: NA
Location:  31.6044°N, 93.4433°W
Report Text: KAQV 281656Z AUTO 17006KT 10SM CLR 14/02 A3034 RMK AO2 SLP275 T01390022
Loading
Personal Weather Stations






























Interactive Weather Map New forecast layout! Learn more

10-Day Weather Forecast

Advertisements
Track Severe Weather on mobile